createdAt,value
2023-11-11T00:02:25.524Z,6.22
2023-11-11T00:04:52.551Z,8.32
2023-11-11T00:07:19.486Z,8.50
2023-11-11T00:09:46.344Z,7.72
2023-11-11T00:12:13.355Z,7.75
2023-11-11T00:14:40.222Z,10.00
2023-11-11T00:17:08.689Z,5.80
2023-11-11T00:19:36.021Z,5.20
2023-11-11T00:22:03.708Z,4.78
2023-11-11T00:24:31.188Z,4.95
2023-11-11T00:26:58.967Z,4.95
2023-11-11T00:29:26.705Z,4.72
2023-11-11T00:31:53.631Z,4.63
2023-11-11T00:34:21.479Z,4.28
2023-11-11T00:36:51.486Z,3.08
2023-11-11T00:39:21.703Z,3.47
2023-11-11T00:41:48.696Z,3.25
2023-11-11T00:44:15.575Z,3.05
2023-11-11T00:46:42.773Z,2.78
2023-11-11T00:49:10.437Z,2.45
2023-11-11T00:51:40.869Z,2.80
2023-11-11T00:54:09.701Z,2.05
2023-11-11T00:56:40.558Z,2.00
2023-11-11T00:59:07.561Z,2.03
2023-11-11T01:01:36.047Z,2.13
2023-11-11T01:04:05.878Z,2.42
2023-11-11T01:06:36.463Z,2.20
2023-11-11T01:09:04.694Z,1.85
2023-11-11T01:11:31.966Z,2.40
2023-11-11T01:13:58.869Z,2.33
2023-11-11T01:16:25.912Z,2.38
2023-11-11T01:18:53.389Z,2.22
2023-11-11T01:21:20.478Z,1.90
2023-11-11T01:23:47.415Z,1.60
2023-11-11T01:26:14.380Z,1.52
2023-11-11T01:28:41.528Z,1.80
2023-11-11T01:31:08.694Z,2.22
2023-11-11T01:33:35.980Z,2.13
2023-11-11T01:36:05.630Z,2.30
2023-11-11T01:38:32.647Z,1.90
2023-11-11T01:40:59.755Z,1.35
2023-11-11T01:43:26.734Z,1.45
2023-11-11T01:45:56.964Z,1.60
2023-11-11T01:48:24.345Z,0.98
2023-11-11T01:50:51.669Z,1.30
2023-11-11T01:53:19.639Z,1.13
2023-11-11T01:55:50.460Z,0.98
2023-11-11T01:58:21.408Z,0.77
2023-11-11T02:00:48.556Z,0.75
2023-11-11T02:03:15.791Z,0.28
2023-11-11T02:05:44.114Z,0.68
2023-11-11T02:08:11.838Z,0.70
2023-11-11T02:10:39.597Z,0.50
2023-11-11T02:13:07.067Z,0.75
2023-11-11T02:15:34.912Z,0.80
2023-11-11T02:18:04.985Z,1.05
2023-11-11T02:20:34.610Z,0.63
2023-11-11T02:23:03.468Z,0.40
2023-11-11T02:25:31.240Z,0.68
2023-11-11T02:27:59.064Z,0.93
2023-11-11T02:30:26.473Z,0.50
2023-11-11T02:32:53.805Z,0.68
2023-11-11T02:35:20.873Z,0.60
2023-11-11T02:37:48.008Z,0.60
2023-11-11T02:40:15.276Z,0.50
2023-11-11T02:42:43.378Z,0.50
2023-11-11T02:45:12.390Z,0.50
2023-11-11T02:47:39.516Z,0.30
2023-11-11T02:50:07.780Z,0.60
2023-11-11T02:52:35.437Z,0.50
2023-11-11T02:55:02.601Z,0.60
2023-11-11T02:57:29.803Z,0.57
2023-11-11T02:59:56.921Z,0.40
2023-11-11T03:02:25.785Z,0.43
2023-11-11T03:04:52.882Z,0.50
2023-11-11T03:07:20.065Z,0.45
2023-11-11T03:09:46.982Z,0.40
2023-11-11T03:12:13.906Z,0.40
2023-11-11T03:14:41.851Z,0.40
2023-11-11T03:17:09.788Z,0.40
2023-11-11T03:19:36.839Z,0.35
2023-11-11T03:22:03.964Z,0.75
2023-11-11T03:24:31.526Z,0.40
2023-11-11T03:26:58.606Z,0.25
2023-11-11T03:29:25.436Z,0.20
2023-11-11T03:31:52.380Z,0.30
2023-11-11T03:34:19.617Z,0.40
2023-11-11T03:36:46.552Z,0.20
2023-11-11T03:39:13.546Z,0.45
2023-11-11T03:41:40.457Z,0.20
2023-11-11T03:44:10.258Z,0.35
2023-11-11T03:46:37.242Z,0.30
2023-11-11T03:49:04.800Z,0.22
2023-11-11T03:51:31.682Z,0.17
2023-11-11T03:53:58.746Z,0.28
2023-11-11T03:56:28.504Z,0.55
2023-11-11T03:58:55.374Z,0.30
2023-11-11T04:01:22.423Z,0.20
2023-11-11T04:03:49.369Z,0.30
2023-11-11T04:06:17.224Z,0.25
2023-11-11T04:08:44.194Z,0.20
2023-11-11T04:11:11.384Z,0.25
2023-11-11T04:13:41.937Z,0.35
2023-11-11T04:16:11.020Z,0.30
2023-11-11T04:18:38.859Z,0.20
2023-11-11T04:21:06.405Z,0.20
2023-11-11T04:23:33.283Z,0.38
2023-11-11T04:26:02.223Z,0.30
2023-11-11T04:28:29.175Z,0.20
2023-11-11T04:30:56.058Z,0.30
2023-11-11T04:33:23.937Z,0.60
2023-11-11T04:35:53.195Z,0.30
2023-11-11T04:38:21.368Z,0.30
2023-11-11T04:40:51.083Z,0.35
2023-11-11T04:43:19.973Z,0.28
2023-11-11T04:45:47.472Z,0.50
2023-11-11T04:48:14.432Z,0.32
2023-11-11T04:50:41.428Z,0.10
2023-11-11T04:53:08.498Z,0.20
2023-11-11T04:55:37.162Z,0.30
2023-11-11T04:58:05.215Z,0.20
2023-11-11T05:00:32.642Z,0.63
2023-11-11T05:03:02.132Z,0.40
2023-11-11T05:05:29.698Z,0.30
2023-11-11T05:07:56.553Z,0.20
2023-11-11T05:10:23.496Z,0.20
2023-11-11T05:12:52.814Z,0.60
2023-11-11T05:15:21.724Z,0.30
2023-11-11T05:17:48.628Z,0.30
2023-11-11T05:20:16.554Z,0.30
2023-11-11T05:22:43.426Z,0.20
2023-11-11T05:25:11.567Z,0.47
2023-11-11T05:27:38.820Z,0.30
2023-11-11T05:30:07.043Z,0.50
2023-11-11T05:32:36.849Z,0.40
2023-11-11T05:35:04.645Z,0.20
2023-11-11T05:37:31.547Z,0.38
2023-11-11T05:39:58.657Z,0.45
2023-11-11T05:42:25.522Z,0.30
2023-11-11T05:44:52.586Z,0.55
2023-11-11T05:47:20.291Z,0.50
2023-11-11T05:49:47.785Z,0.63
2023-11-11T05:52:14.626Z,0.50
2023-11-11T05:54:41.709Z,0.32
2023-11-11T05:57:08.723Z,0.57
2023-11-11T05:59:35.658Z,0.47
2023-11-11T06:02:06.158Z,0.50
2023-11-11T06:04:36.902Z,0.55
2023-11-11T06:07:04.298Z,0.73
2023-11-11T06:09:32.092Z,0.80
2023-11-11T06:11:59.227Z,1.30
2023-11-11T06:14:27.370Z,1.70
2023-11-11T06:16:54.248Z,1.00
2023-11-11T06:19:21.256Z,0.50
2023-11-11T06:21:48.845Z,1.20
2023-11-11T06:24:16.402Z,1.42
2023-11-11T06:26:43.873Z,0.90
2023-11-11T06:29:11.295Z,1.25
2023-11-11T06:31:38.244Z,1.10
2023-11-11T06:34:11.670Z,1.20
2023-11-11T06:36:38.746Z,1.05
2023-11-11T06:39:05.824Z,0.90
2023-11-11T06:41:32.682Z,0.80
2023-11-11T06:43:59.484Z,0.70
2023-11-11T06:46:26.388Z,0.52
2023-11-11T06:48:53.276Z,0.95
2023-11-11T06:51:20.199Z,0.90
2023-11-11T06:53:47.386Z,0.73
2023-11-11T06:56:17.551Z,0.60
2023-11-11T06:58:44.780Z,0.70
2023-11-11T07:01:12.975Z,1.10
2023-11-11T07:03:41.049Z,1.65
2023-11-11T07:06:08.229Z,1.60
2023-11-11T07:08:35.552Z,0.90
2023-11-11T07:11:02.780Z,1.00
2023-11-11T07:13:29.650Z,1.23
2023-11-11T07:15:57.016Z,0.70
2023-11-11T07:18:24.518Z,0.85
2023-11-11T07:20:51.734Z,1.25
2023-11-11T07:23:18.591Z,0.75
2023-11-11T07:25:46.313Z,1.00
2023-11-11T07:28:13.211Z,0.90
2023-11-11T07:30:41.247Z,0.85
2023-11-11T07:33:08.258Z,1.48
2023-11-11T07:35:35.164Z,1.17
2023-11-11T07:38:02.581Z,1.08
2023-11-11T07:40:34.657Z,1.40
2023-11-11T07:43:01.589Z,1.90
2023-11-11T07:45:28.569Z,1.63
2023-11-11T07:47:55.912Z,1.70
2023-11-11T07:50:23.441Z,1.40
2023-11-11T07:52:56.372Z,3.17
2023-11-11T07:55:24.865Z,1.73
2023-11-11T08:00:22.055Z,1.20
2023-11-11T08:02:49.569Z,1.50
2023-11-11T08:05:17.413Z,1.30
2023-11-11T08:07:44.654Z,1.02
2023-11-11T08:10:12.260Z,1.00
2023-11-11T08:12:39.836Z,1.50
2023-11-11T08:15:07.649Z,1.77
2023-11-11T08:17:35.536Z,1.80
2023-11-11T08:20:05.063Z,2.00
2023-11-11T08:22:43.736Z,1.50
2023-11-11T08:25:21.403Z,1.83
2023-11-11T08:27:50.418Z,2.00
2023-11-11T08:30:18.021Z,2.00
2023-11-11T08:32:45.041Z,1.50
2023-11-11T08:35:17.763Z,1.83
2023-11-11T08:37:46.743Z,1.90
2023-11-11T08:40:18.857Z,1.88
2023-11-11T08:45:14.648Z,2.10
2023-11-11T08:47:41.868Z,2.70
2023-11-11T08:50:11.470Z,2.50
2023-11-11T08:52:43.067Z,2.78
2023-11-11T08:55:13.262Z,3.30
2023-11-11T08:57:41.291Z,3.25
2023-11-11T09:00:14.076Z,3.10
2023-11-11T09:02:42.949Z,2.83
2023-11-11T09:05:10.899Z,2.65
2023-11-11T09:07:38.129Z,3.05
2023-11-11T09:10:05.925Z,2.85
2023-11-11T09:12:34.033Z,2.88
2023-11-11T09:15:01.287Z,2.63
2023-11-11T09:17:28.229Z,3.90
2023-11-11T09:19:55.365Z,2.83
2023-11-11T09:22:22.268Z,3.22
2023-11-11T09:24:49.145Z,4.25
2023-11-11T09:27:16.443Z,4.53
2023-11-11T09:29:43.964Z,4.93
2023-11-11T09:32:12.882Z,5.63
2023-11-11T09:34:44.014Z,6.78
2023-11-11T09:37:12.042Z,4.95
2023-11-11T09:39:39.270Z,5.68
2023-11-11T09:42:11.476Z,5.95
2023-11-11T09:47:15.338Z,3.67
2023-11-11T09:49:43.397Z,4.40
2023-11-11T09:52:13.477Z,4.30
2023-11-11T09:54:44.106Z,3.80
2023-11-11T09:57:12.479Z,3.92
2023-11-11T09:59:40.705Z,4.50
2023-11-11T10:02:11.961Z,3.85
2023-11-11T10:04:41.977Z,5.40
2023-11-11T10:07:11.477Z,5.55
2023-11-11T10:09:38.420Z,5.40
2023-11-11T10:12:05.969Z,5.55
2023-11-11T10:14:37.027Z,8.25
2023-11-11T10:19:32.760Z,5.55
2023-11-11T10:22:00.880Z,5.28
2023-11-11T10:24:28.194Z,5.22
2023-11-11T10:26:55.227Z,5.30
2023-11-11T10:29:22.165Z,5.10
2023-11-11T10:31:50.323Z,5.07
2023-11-11T10:34:17.358Z,5.00
2023-11-11T10:36:46.447Z,6.35
2023-11-11T10:39:13.967Z,6.30
2023-11-11T10:41:41.766Z,7.55
2023-11-11T10:44:10.182Z,8.00
2023-11-11T10:46:38.368Z,9.38
2023-11-11T10:49:06.210Z,9.50
2023-11-11T10:51:35.070Z,9.65
2023-11-11T10:54:06.983Z,10.80
2023-11-11T10:56:34.761Z,12.30
2023-11-11T10:59:06.784Z,13.73
2023-11-11T11:04:03.713Z,13.65
2023-11-11T11:06:53.057Z,13.75
2023-11-11T11:09:32.614Z,13.43
2023-11-11T11:12:19.334Z,14.43
2023-11-11T11:14:53.264Z,13.90
2023-11-11T11:17:26.224Z,14.70
2023-11-11T11:20:10.876Z,15.05
2023-11-11T11:22:41.328Z,14.00
2023-11-11T11:25:43.320Z,14.95
2023-11-11T11:28:13.969Z,14.88
2023-11-11T11:30:49.193Z,15.80
2023-11-11T11:33:21.559Z,15.10
2023-11-11T11:35:50.989Z,16.80
2023-11-11T11:38:35.416Z,15.68
2023-11-11T11:41:11.397Z,14.63
2023-11-11T11:43:40.629Z,14.75
2023-11-11T11:46:08.549Z,15.00
2023-11-11T11:48:40.851Z,14.95
2023-11-11T11:51:15.675Z,15.68
2023-11-11T11:53:44.026Z,15.10
2023-11-11T11:56:13.192Z,14.73
2023-11-11T11:58:52.982Z,15.00
2023-11-11T12:01:32.602Z,15.30
2023-11-11T12:04:00.837Z,15.50
2023-11-11T12:06:28.452Z,15.18
2023-11-11T12:09:01.185Z,14.88
2023-11-11T12:11:31.442Z,14.73
2023-11-11T12:14:15.224Z,13.85
2023-11-11T12:16:49.065Z,14.43
2023-11-11T12:19:22.610Z,14.10
2023-11-11T12:21:51.796Z,13.50
2023-11-11T12:24:23.698Z,12.82
2023-11-11T12:26:52.073Z,12.65
2023-11-11T12:29:20.350Z,11.27
2023-11-11T12:31:55.308Z,10.48
2023-11-11T12:34:24.609Z,10.88
2023-11-11T12:36:56.378Z,11.73
2023-11-11T12:39:26.854Z,11.52
2023-11-11T12:44:25.044Z,12.10
2023-11-11T12:46:53.053Z,13.10
2023-11-11T12:49:29.301Z,12.27
2023-11-11T12:52:00.655Z,12.43
2023-11-11T12:54:34.516Z,11.17
2023-11-11T12:57:02.384Z,11.50
2023-11-11T12:59:29.279Z,11.13
2023-11-11T13:02:01.907Z,12.23
2023-11-11T13:04:32.771Z,11.27
2023-11-11T13:07:03.144Z,11.43
2023-11-11T13:09:43.431Z,12.32
2023-11-11T13:12:11.544Z,11.48
2023-11-11T13:14:38.433Z,11.25
2023-11-11T13:17:05.777Z,10.55
2023-11-11T13:19:36.082Z,11.27
2023-11-11T13:22:06.137Z,10.77
2023-11-11T13:24:33.772Z,10.85
2023-11-11T13:27:01.274Z,10.52
2023-11-11T13:29:28.485Z,11.07
2023-11-11T13:31:57.258Z,10.63
2023-11-11T13:34:25.159Z,11.13
2023-11-11T13:36:52.944Z,11.88
2023-11-11T13:39:36.506Z,9.68
2023-11-11T13:42:11.621Z,10.68
2023-11-11T13:44:39.657Z,10.77
2023-11-11T13:47:07.230Z,9.68
2023-11-11T13:49:34.267Z,10.07
2023-11-11T13:52:01.731Z,11.55
2023-11-11T13:54:28.984Z,10.13
2023-11-11T13:56:58.354Z,11.52
2023-11-11T13:59:25.731Z,11.52
2023-11-11T14:01:53.366Z,11.55
2023-11-11T14:04:20.595Z,11.68
2023-11-11T14:06:47.740Z,10.57
2023-11-11T14:09:15.342Z,10.57
2023-11-11T14:11:43.836Z,10.05
2023-11-11T14:14:10.840Z,9.82
2023-11-11T14:16:39.044Z,10.38
2023-11-11T14:19:11.248Z,10.45
2023-11-11T14:24:07.635Z,9.90
2023-11-11T14:26:34.554Z,11.50
2023-11-11T14:29:01.674Z,11.48
2023-11-11T14:31:30.557Z,12.27
2023-11-11T14:34:03.950Z,11.23
2023-11-11T14:36:38.787Z,10.38
2023-11-11T14:39:08.061Z,10.40
2023-11-11T14:41:38.969Z,10.73
2023-11-11T14:44:06.664Z,10.73
2023-11-11T14:46:36.258Z,11.18
2023-11-11T14:49:07.320Z,11.50
2023-11-11T14:51:34.622Z,11.13
2023-11-11T14:54:02.172Z,10.93
2023-11-11T14:56:31.840Z,11.32
2023-11-11T14:58:58.668Z,11.95
2023-11-11T15:01:26.156Z,12.85
2023-11-11T15:03:54.535Z,14.30
2023-11-11T15:06:21.742Z,14.60
2023-11-11T15:08:49.311Z,15.02
2023-11-11T15:11:17.071Z,15.60
2023-11-11T15:13:44.979Z,16.00
2023-11-11T15:16:15.897Z,16.33
2023-11-11T15:18:43.293Z,15.95
2023-11-11T15:21:11.402Z,16.63
2023-11-11T15:23:38.460Z,17.20
2023-11-11T15:26:06.749Z,14.63
2023-11-11T15:28:34.250Z,15.60
2023-11-11T15:31:01.506Z,14.95
2023-11-11T15:33:29.620Z,15.25
2023-11-11T15:35:57.259Z,13.52
2023-11-11T15:38:25.325Z,15.45
2023-11-11T15:40:52.677Z,17.05
2023-11-11T15:43:19.795Z,19.80
2023-11-11T15:45:47.007Z,18.35
2023-11-11T15:48:14.168Z,17.98
2023-11-11T15:50:42.236Z,16.08
2023-11-11T15:53:09.965Z,16.45
2023-11-11T15:55:36.909Z,16.52
2023-11-11T15:58:06.494Z,15.77
2023-11-11T16:00:34.543Z,17.58
2023-11-11T16:03:02.731Z,15.93
2023-11-11T16:05:30.950Z,14.18
2023-11-11T16:07:57.855Z,13.55
2023-11-11T16:10:24.867Z,13.82
2023-11-11T16:12:51.716Z,14.75
2023-11-11T16:15:18.662Z,14.63
2023-11-11T16:17:45.746Z,14.55
2023-11-11T16:20:15.861Z,15.38
2023-11-11T16:22:43.118Z,15.70
2023-11-11T16:25:14.506Z,16.70
2023-11-11T16:27:48.782Z,17.38
2023-11-11T16:30:16.005Z,17.75
2023-11-11T16:32:45.080Z,17.50
2023-11-11T16:35:12.983Z,23.85
2023-11-11T16:37:40.007Z,26.10
2023-11-11T16:40:12.015Z,17.52
2023-11-11T16:42:42.868Z,17.30
2023-11-11T16:45:10.150Z,17.60
2023-11-11T16:47:37.453Z,23.95
2023-11-11T16:50:05.337Z,19.98
2023-11-11T16:52:32.408Z,24.70
2023-11-11T16:54:59.541Z,20.73
2023-11-11T16:57:26.400Z,20.52
2023-11-11T16:59:55.527Z,16.30
2023-11-11T17:02:22.641Z,16.42
2023-11-11T17:04:49.704Z,17.90
2023-11-11T17:07:24.746Z,18.23
2023-11-11T17:09:54.645Z,16.55
2023-11-11T17:12:21.915Z,16.55
2023-11-11T17:14:48.759Z,17.10
2023-11-11T17:17:15.786Z,16.60
2023-11-11T17:19:42.619Z,16.13
2023-11-11T17:22:09.581Z,16.52
2023-11-11T17:24:36.891Z,16.33
2023-11-11T17:27:04.697Z,16.73
2023-11-11T17:29:31.720Z,16.67
2023-11-11T17:31:59.879Z,14.13
2023-11-11T17:34:27.078Z,16.27
2023-11-11T17:36:54.572Z,15.90
2023-11-11T17:39:23.096Z,13.95
2023-11-11T17:41:50.116Z,13.13
2023-11-11T17:44:18.642Z,17.20
2023-11-11T17:46:46.438Z,17.27
2023-11-11T17:49:14.473Z,16.63
2023-11-11T17:51:41.644Z,16.55
2023-11-11T17:54:08.590Z,15.27
2023-11-11T17:56:35.663Z,15.18
2023-11-11T17:59:04.513Z,15.07
2023-11-11T18:01:39.096Z,13.25
2023-11-11T18:04:07.554Z,14.60
2023-11-11T18:06:40.999Z,13.82
2023-11-11T18:09:09.099Z,14.85
2023-11-11T18:11:36.579Z,14.38
2023-11-11T18:14:04.537Z,14.43
2023-11-11T18:16:31.777Z,15.75
2023-11-11T18:18:59.116Z,15.52
2023-11-11T18:21:27.119Z,16.50
2023-11-11T18:23:55.115Z,15.10
2023-11-11T18:26:22.597Z,17.05
2023-11-11T18:28:51.538Z,16.73
2023-11-11T18:31:18.594Z,15.60
2023-11-11T18:33:45.664Z,13.95
2023-11-11T18:36:12.676Z,14.70
2023-11-11T18:38:40.061Z,15.43
2023-11-11T18:41:08.155Z,15.00
2023-11-11T18:43:35.313Z,14.50
2023-11-11T18:46:02.444Z,15.32
2023-11-11T18:48:29.675Z,15.68
2023-11-11T18:50:56.604Z,15.75
2023-11-11T18:53:23.633Z,15.93
2023-11-11T18:55:50.637Z,14.60
2023-11-11T18:58:19.116Z,15.98
2023-11-11T19:00:46.165Z,15.48
2023-11-11T19:03:13.176Z,14.13
2023-11-11T19:05:40.757Z,16.30
2023-11-11T19:08:07.760Z,17.25
2023-11-11T19:10:35.315Z,18.48
2023-11-11T19:13:02.781Z,16.77
2023-11-11T19:15:29.840Z,16.63
2023-11-11T19:17:56.770Z,16.23
2023-11-11T19:20:24.990Z,17.10
2023-11-11T19:22:57.834Z,18.08
2023-11-11T19:25:26.132Z,17.48
2023-11-11T19:27:58.856Z,16.67
2023-11-11T19:30:27.445Z,18.17
2023-11-11T19:32:55.776Z,16.50
2023-11-11T19:35:24.936Z,14.98
2023-11-11T19:37:54.549Z,13.25
2023-11-11T19:40:22.104Z,12.35
2023-11-11T19:42:49.147Z,13.00
2023-11-11T19:45:16.921Z,13.02
2023-11-11T19:47:44.833Z,12.30
2023-11-11T19:50:14.955Z,14.13
2023-11-11T19:52:42.649Z,13.23
2023-11-11T19:55:10.537Z,12.48
2023-11-11T19:57:44.438Z,12.43
2023-11-11T20:00:15.180Z,12.07
2023-11-11T20:02:43.174Z,13.00
2023-11-11T20:05:11.184Z,12.48
2023-11-11T20:07:38.868Z,11.57
2023-11-11T20:10:06.778Z,15.35
2023-11-11T20:12:36.258Z,13.18
2023-11-11T20:15:14.322Z,11.68
2023-11-11T20:17:49.991Z,11.82
2023-11-11T20:20:17.043Z,10.02
2023-11-11T20:22:45.273Z,8.23
2023-11-11T20:25:12.956Z,9.18
2023-11-11T20:27:40.452Z,8.85
2023-11-11T20:30:08.360Z,5.85
2023-11-11T20:32:35.554Z,7.10
2023-11-11T20:35:02.780Z,6.43
2023-11-11T20:37:30.694Z,7.65
2023-11-11T20:40:01.712Z,6.03
2023-11-11T20:42:28.703Z,6.15
2023-11-11T20:44:56.336Z,5.00
2023-11-11T20:47:23.829Z,5.95
2023-11-11T20:49:51.460Z,5.63
2023-11-11T20:52:18.598Z,6.43
2023-11-11T20:54:45.790Z,5.88
2023-11-11T20:57:12.824Z,6.40
2023-11-11T20:59:39.777Z,6.00
2023-11-11T21:02:07.157Z,5.28
2023-11-11T21:04:34.628Z,6.90
2023-11-11T21:07:02.522Z,8.80
2023-11-11T21:09:29.445Z,7.10
2023-11-11T21:11:57.576Z,5.70
2023-11-11T21:14:25.010Z,6.50
2023-11-11T21:16:51.981Z,5.50
2023-11-11T21:19:22.686Z,4.93
2023-11-11T21:21:49.675Z,3.92
2023-11-11T21:24:19.370Z,5.85
2023-11-11T21:26:49.230Z,6.03
2023-11-11T21:29:16.567Z,6.63
2023-11-11T21:31:44.330Z,4.70
2023-11-11T21:34:12.313Z,6.05
2023-11-11T21:36:39.282Z,6.18
2023-11-11T21:39:10.746Z,6.47
2023-11-11T21:41:37.878Z,8.40
2023-11-11T21:44:06.475Z,7.75
2023-11-11T21:46:33.949Z,7.15
2023-11-11T21:49:01.036Z,6.35
2023-11-11T21:51:28.037Z,6.80
2023-11-11T21:53:55.320Z,6.88
2023-11-11T21:56:22.160Z,7.82
2023-11-11T21:58:50.303Z,6.30
2023-11-11T22:01:18.847Z,7.32
2023-11-11T22:03:45.961Z,7.60
2023-11-11T22:06:12.963Z,7.72
2023-11-11T22:08:40.235Z,7.53
2023-11-11T22:11:11.554Z,6.85
2023-11-11T22:13:38.922Z,6.40
2023-11-11T22:16:07.878Z,7.10
2023-11-11T22:18:38.319Z,7.53
2023-11-11T22:21:06.018Z,7.78
2023-11-11T22:23:33.334Z,8.05
2023-11-11T22:26:00.230Z,7.35
2023-11-11T22:28:27.194Z,8.38
2023-11-11T22:30:54.945Z,9.43
2023-11-11T22:33:23.072Z,8.40
2023-11-11T22:35:50.021Z,9.95
2023-11-11T22:38:18.261Z,10.27
2023-11-11T22:40:45.369Z,8.95
2023-11-11T22:43:12.356Z,8.82
2023-11-11T22:45:39.256Z,7.93
2023-11-11T22:48:06.367Z,8.88
2023-11-11T22:50:34.768Z,10.27
2023-11-11T22:53:01.973Z,9.82
2023-11-11T22:55:29.130Z,10.18
2023-11-11T22:57:56.149Z,9.80
2023-11-11T23:00:35.008Z,8.98
2023-11-11T23:03:04.164Z,9.77
2023-11-11T23:05:31.185Z,10.50
2023-11-11T23:07:58.134Z,9.75
2023-11-11T23:10:28.668Z,8.93
2023-11-11T23:12:55.773Z,8.40
2023-11-11T23:15:22.696Z,9.80
2023-11-11T23:17:49.844Z,8.63
2023-11-11T23:20:17.023Z,9.63
2023-11-11T23:22:45.413Z,8.55
2023-11-11T23:25:12.408Z,7.00
2023-11-11T23:27:42.766Z,6.97
2023-11-11T23:30:10.540Z,7.68
2023-11-11T23:32:37.768Z,6.95
2023-11-11T23:35:05.443Z,7.40
2023-11-11T23:37:32.566Z,7.35
2023-11-11T23:39:59.509Z,7.38
2023-11-11T23:42:26.623Z,6.63
2023-11-11T23:44:53.617Z,6.68
2023-11-11T23:47:22.069Z,7.63
2023-11-11T23:49:50.028Z,7.05
2023-11-11T23:52:16.893Z,6.97
2023-11-11T23:54:43.718Z,6.43
2023-11-11T23:57:10.788Z,5.45
2023-11-11T23:59:37.729Z,5.50
